createdAt,value
2019-05-17T00:00:11.548Z,82.29
2019-05-17T00:01:11.540Z,81.92
2019-05-17T00:02:11.526Z,81.54
2019-05-17T00:03:11.503Z,81.63
2019-05-17T00:04:11.494Z,81.82
2019-05-17T00:05:11.477Z,81.82
2019-05-17T00:06:11.472Z,82.01
2019-05-17T00:07:11.449Z,81.82
2019-05-17T00:08:11.437Z,81.35
2019-05-17T00:09:11.419Z,81.54
2019-05-17T00:10:11.402Z,81.06
2019-05-17T00:11:11.390Z,81.16
2019-05-17T00:12:11.377Z,80.96
2019-05-17T00:13:14.538Z,80.96
2019-05-17T00:14:11.345Z,80.68
2019-05-17T00:15:11.329Z,80.96
2019-05-17T00:16:11.319Z,81.06
2019-05-17T00:17:11.303Z,81.06
2019-05-17T00:18:11.284Z,80.58
2019-05-17T00:19:11.272Z,80.77
2019-05-17T00:20:11.257Z,80.77
2019-05-17T00:21:11.245Z,81.16
2019-05-17T00:22:11.228Z,80.96
2019-05-17T00:23:11.214Z,80.49
2019-05-17T00:24:11.195Z,81.06
2019-05-17T00:25:11.180Z,80.87
2019-05-17T00:26:11.169Z,80.77
2019-05-17T00:27:11.153Z,81.16
2019-05-17T00:28:11.137Z,81.06
2019-05-17T00:29:11.116Z,81.16
2019-05-17T00:30:11.112Z,80.77
2019-05-17T00:31:11.094Z,80.58
2019-05-17T00:32:11.079Z,80.77
2019-05-17T00:33:11.061Z,80.87
2019-05-17T00:34:11.046Z,80.44
2019-05-17T00:35:11.032Z,79.77
2019-05-17T00:36:11.023Z,80.34
2019-05-17T00:37:11.000Z,79.86
2019-05-17T00:38:10.986Z,80.44
2019-05-17T00:39:10.977Z,80.77
2019-05-17T00:40:10.958Z,79.73
2019-05-17T00:41:10.942Z,80.15
2019-05-17T00:42:10.930Z,80.02
2019-05-17T00:43:10.911Z,80.02
2019-05-17T00:44:10.898Z,80.02
2019-05-17T00:45:10.881Z,80.40
2019-05-17T00:46:10.869Z,81.06
2019-05-17T00:47:10.855Z,80.96
2019-05-17T00:48:10.841Z,80.68
2019-05-17T00:49:10.825Z,80.77
2019-05-17T00:50:10.810Z,81.35
2019-05-17T00:51:11.088Z,81.44
2019-05-17T00:52:10.779Z,81.35
2019-05-17T00:53:10.763Z,81.35
2019-05-17T00:54:10.750Z,81.25
2019-05-17T00:55:10.738Z,80.96
2019-05-17T00:56:10.718Z,80.96
2019-05-17T00:57:10.716Z,81.35
2019-05-17T00:58:10.695Z,81.54
2019-05-17T00:59:10.679Z,81.06
2019-05-17T01:00:10.662Z,80.68
2019-05-17T01:01:10.643Z,80.58
2019-05-17T01:02:10.631Z,80.87
2019-05-17T01:03:10.617Z,80.30
2019-05-17T01:04:10.609Z,80.11
2019-05-17T01:05:10.585Z,79.83
2019-05-17T01:06:10.570Z,79.73
2019-05-17T01:07:10.556Z,80.30
2019-05-17T01:08:10.540Z,80.96
2019-05-17T01:09:10.530Z,81.16
2019-05-17T01:10:10.512Z,80.49
2019-05-17T01:11:10.498Z,80.87
2019-05-17T01:12:10.486Z,81.01
2019-05-17T01:13:10.466Z,80.96
2019-05-17T01:14:10.451Z,80.87
2019-05-17T01:15:10.437Z,80.58
2019-05-17T01:16:10.421Z,80.11
2019-05-17T01:17:10.407Z,80.02
2019-05-17T01:18:10.394Z,79.92
2019-05-17T01:19:10.380Z,80.11
2019-05-17T01:20:10.365Z,79.83
2019-05-17T01:21:10.349Z,80.30
2019-05-17T01:22:10.336Z,80.49
2019-05-17T01:23:10.312Z,80.30
2019-05-17T01:24:10.304Z,80.21
2019-05-17T01:25:10.288Z,80.11
2019-05-17T01:26:10.274Z,80.77
2019-05-17T01:27:10.260Z,80.96
2019-05-17T01:28:10.244Z,80.87
2019-05-17T01:29:10.231Z,80.02
2019-05-17T01:30:10.214Z,80.02
2019-05-17T01:31:10.199Z,80.21
2019-05-17T01:32:10.183Z,79.92
2019-05-17T01:33:10.172Z,80.11
2019-05-17T01:34:10.157Z,79.92
2019-05-17T01:35:10.141Z,80.11
2019-05-17T01:36:10.123Z,80.11
2019-05-17T01:37:10.109Z,80.30
2019-05-17T01:38:10.096Z,80.68
2019-05-17T01:39:17.718Z,80.77
2019-05-17T01:40:10.068Z,81.16
2019-05-17T01:41:10.054Z,81.06
2019-05-17T01:42:10.034Z,81.06
2019-05-17T01:43:10.020Z,81.54
2019-05-17T01:44:10.005Z,81.82
2019-05-17T01:45:09.995Z,81.44
2019-05-17T01:46:09.978Z,81.25
2019-05-17T01:47:09.960Z,81.25
2019-05-17T01:48:09.950Z,81.35
2019-05-17T01:49:09.933Z,81.35
2019-05-17T01:50:09.916Z,81.16
2019-05-17T01:51:09.902Z,80.87
2019-05-17T01:52:09.887Z,80.87
2019-05-17T01:53:09.869Z,80.96
2019-05-17T01:54:09.852Z,81.06
2019-05-17T01:55:09.846Z,80.96
2019-05-17T01:56:09.831Z,80.30
2019-05-17T01:57:09.807Z,80.21
2019-05-17T01:58:09.798Z,80.11
2019-05-17T01:59:09.780Z,79.73
2019-05-17T02:00:09.767Z,80.40
2019-05-17T02:01:09.753Z,79.92
2019-05-17T02:02:09.744Z,80.11
2019-05-17T02:03:09.720Z,79.92
2019-05-17T02:04:09.702Z,80.40
2019-05-17T02:05:09.717Z,79.83
2019-05-17T02:06:09.676Z,79.83
2019-05-17T02:07:09.658Z,80.30
2019-05-17T02:08:09.648Z,79.92
2019-05-17T02:09:09.641Z,80.87
2019-05-17T02:10:09.621Z,81.35
2019-05-17T02:11:09.604Z,81.44
2019-05-17T02:12:09.585Z,81.25
2019-05-17T02:13:09.574Z,81.25
2019-05-17T02:14:09.556Z,81.63
2019-05-17T02:15:09.541Z,81.82
2019-05-17T02:16:09.526Z,81.82
2019-05-17T02:17:09.511Z,82.01
2019-05-17T02:18:09.501Z,81.73
2019-05-17T02:19:09.480Z,81.82
2019-05-17T02:20:09.464Z,81.63
2019-05-17T02:21:09.460Z,81.82
2019-05-17T02:22:09.436Z,81.82
2019-05-17T02:23:09.418Z,81.82
2019-05-17T02:24:09.409Z,81.73
2019-05-17T02:25:09.392Z,81.67
2019-05-17T02:26:09.378Z,81.20
2019-05-17T02:27:09.359Z,81.29
2019-05-17T02:28:09.342Z,81.48
2019-05-17T02:29:09.336Z,80.82
2019-05-17T02:30:09.319Z,80.15
2019-05-17T02:31:09.300Z,80.05
2019-05-17T02:32:12.598Z,79.96
2019-05-17T02:33:12.419Z,79.83
2019-05-17T02:34:09.257Z,80.49
2019-05-17T02:35:09.248Z,80.87
2019-05-17T02:36:09.231Z,80.63
2019-05-17T02:37:09.219Z,80.53
2019-05-17T02:38:09.199Z,80.63
2019-05-17T02:39:09.184Z,80.63
2019-05-17T02:40:09.167Z,81.01
2019-05-17T02:41:09.153Z,80.91
2019-05-17T02:42:09.145Z,80.72
2019-05-17T02:43:09.124Z,80.53
2019-05-17T02:44:09.108Z,80.72
2019-05-17T02:45:09.098Z,81.10
2019-05-17T02:46:09.085Z,80.15
2019-05-17T02:47:09.071Z,79.68
2019-05-17T02:48:09.047Z,79.68
2019-05-17T02:49:09.034Z,80.24
2019-05-17T02:50:09.021Z,81.20
2019-05-17T02:51:12.804Z,80.82
2019-05-17T02:52:12.158Z,80.82
2019-05-17T02:53:08.979Z,81.01
2019-05-17T02:54:08.964Z,80.53
2019-05-17T02:55:08.943Z,80.91
2019-05-17T02:56:12.984Z,80.82
2019-05-17T02:57:08.914Z,80.82
2019-05-17T02:58:08.899Z,80.82
2019-05-17T02:59:08.896Z,81.20
2019-05-17T03:00:08.867Z,81.20
2019-05-17T03:01:08.857Z,81.20
2019-05-17T03:02:08.840Z,81.10
2019-05-17T03:03:08.830Z,81.38
2019-05-17T03:04:08.814Z,81.10
2019-05-17T03:05:08.801Z,80.82
2019-05-17T03:06:08.782Z,80.53
2019-05-17T03:07:08.777Z,81.01
2019-05-17T03:08:08.754Z,80.91
2019-05-17T03:09:08.733Z,80.44
2019-05-17T03:10:18.149Z,80.34
2019-05-17T03:11:08.709Z,80.82
2019-05-17T03:12:08.693Z,80.91
2019-05-17T03:13:08.681Z,81.20
2019-05-17T03:14:08.663Z,80.91
2019-05-17T03:15:08.651Z,80.53
2019-05-17T03:16:08.641Z,80.91
2019-05-17T03:17:08.622Z,80.82
2019-05-17T03:18:08.614Z,81.29
2019-05-17T03:19:08.591Z,80.72
2019-05-17T03:20:08.575Z,81.10
2019-05-17T03:21:08.561Z,80.91
2019-05-17T03:22:08.554Z,80.82
2019-05-17T03:23:08.528Z,81.29
2019-05-17T03:24:08.515Z,81.29
2019-05-17T03:25:08.500Z,81.10
2019-05-17T03:26:08.486Z,81.38
2019-05-17T03:27:08.470Z,81.01
2019-05-17T03:28:08.454Z,80.82
2019-05-17T03:29:08.449Z,80.82
2019-05-17T03:30:08.426Z,80.05
2019-05-17T03:31:09.582Z,80.15
2019-05-17T03:32:11.254Z,79.43
2019-05-17T03:33:08.637Z,79.11
2019-05-17T03:34:08.375Z,79.20
2019-05-17T03:35:08.412Z,79.49
2019-05-17T03:36:08.343Z,80.05
2019-05-17T03:37:08.329Z,80.15
2019-05-17T03:38:08.314Z,79.96
2019-05-17T03:39:08.301Z,81.10
2019-05-17T03:40:23.383Z,80.63
2019-05-17T03:41:18.601Z,80.91
2019-05-17T03:42:08.254Z,80.82
2019-05-17T03:43:08.243Z,79.77
2019-05-17T03:44:08.228Z,80.15
2019-05-17T03:45:08.212Z,79.96
2019-05-17T03:46:08.194Z,79.86
2019-05-17T03:47:08.191Z,80.15
2019-05-17T03:48:08.181Z,80.63
2019-05-17T03:49:08.150Z,80.53
2019-05-17T03:50:08.139Z,80.15
2019-05-17T03:51:08.123Z,79.68
2019-05-17T03:52:08.109Z,80.05
2019-05-17T03:53:08.093Z,80.53
2019-05-17T03:54:08.080Z,80.44
2019-05-17T03:55:08.061Z,79.96
2019-05-17T03:56:08.042Z,79.96
2019-05-17T03:57:08.033Z,79.86
2019-05-17T03:58:08.019Z,80.15
2019-05-17T03:59:08.005Z,80.15
2019-05-17T04:00:07.988Z,79.96
2019-05-17T04:01:07.977Z,80.05
2019-05-17T04:02:07.954Z,80.44
2019-05-17T04:03:07.949Z,80.05
2019-05-17T04:04:07.927Z,80.15
2019-05-17T04:05:07.913Z,79.86
2019-05-17T04:06:07.913Z,80.15
2019-05-17T04:07:07.883Z,80.82
2019-05-17T04:08:07.881Z,81.01
2019-05-17T04:09:07.857Z,81.29
2019-05-17T04:10:07.845Z,81.10
2019-05-17T04:11:21.222Z,81.48
2019-05-17T04:12:07.808Z,81.67
2019-05-17T04:13:07.800Z,80.91
2019-05-17T04:14:07.786Z,81.10
2019-05-17T04:15:07.768Z,80.91
2019-05-17T04:16:09.271Z,81.48
2019-05-17T04:17:07.738Z,81.38
2019-05-17T04:18:07.723Z,81.38
2019-05-17T04:19:07.713Z,81.58
2019-05-17T04:20:07.688Z,81.10
2019-05-17T04:21:07.680Z,81.10
2019-05-17T04:22:07.666Z,80.91
2019-05-17T04:23:07.652Z,80.91
2019-05-17T04:24:07.634Z,81.20
2019-05-17T04:25:07.623Z,80.91
2019-05-17T04:26:07.605Z,81.48
2019-05-17T04:27:07.590Z,81.48
2019-05-17T04:28:07.574Z,81.14
2019-05-17T04:29:07.558Z,81.01
2019-05-17T04:30:07.541Z,81.48
2019-05-17T04:31:07.532Z,81.77
2019-05-17T04:32:07.516Z,81.81
2019-05-17T04:33:07.503Z,81.77
2019-05-17T04:34:07.487Z,81.86
2019-05-17T04:35:07.478Z,81.96
2019-05-17T04:36:07.456Z,81.96
2019-05-17T04:37:07.443Z,81.77
2019-05-17T04:38:07.437Z,81.90
2019-05-17T04:39:07.412Z,82.05
2019-05-17T04:40:07.409Z,82.00
2019-05-17T04:41:07.384Z,82.00
2019-05-17T04:42:07.370Z,81.81
2019-05-17T04:43:07.354Z,82.09
2019-05-17T04:44:07.341Z,81.71
2019-05-17T04:45:07.326Z,81.33
2019-05-17T04:46:07.315Z,81.62
2019-05-17T04:47:07.292Z,81.43
2019-05-17T04:48:07.278Z,81.62
2019-05-17T04:49:07.266Z,81.05
2019-05-17T04:50:07.255Z,80.95
2019-05-17T04:51:07.238Z,80.95
2019-05-17T04:52:07.224Z,81.43
2019-05-17T04:53:07.205Z,81.43
2019-05-17T04:54:07.195Z,82.09
2019-05-17T04:55:07.182Z,81.62
2019-05-17T04:56:07.165Z,81.24
2019-05-17T04:57:07.146Z,81.33
2019-05-17T04:58:07.134Z,80.66
2019-05-17T04:59:07.122Z,81.43
2019-05-17T05:00:07.106Z,82.19
2019-05-17T05:01:07.092Z,81.33
2019-05-17T05:02:07.077Z,81.24
2019-05-17T05:03:07.065Z,81.24
2019-05-17T05:04:07.061Z,80.86
2019-05-17T05:05:07.038Z,80.57
2019-05-17T05:06:07.021Z,80.76
2019-05-17T05:07:07.013Z,81.43
2019-05-17T05:08:06.992Z,81.14
2019-05-17T05:09:06.974Z,80.86
2019-05-17T05:10:07.005Z,80.95
2019-05-17T05:11:06.950Z,80.95
2019-05-17T05:12:06.933Z,81.05
2019-05-17T05:13:06.921Z,80.86
2019-05-17T05:14:06.900Z,80.76
2019-05-17T05:15:06.892Z,81.52
2019-05-17T05:16:06.870Z,81.62
2019-05-17T05:17:06.869Z,81.43
2019-05-17T05:18:06.842Z,81.62
2019-05-17T05:19:06.829Z,81.18
2019-05-17T05:20:06.818Z,80.99
2019-05-17T05:21:06.804Z,80.04
2019-05-17T05:22:06.791Z,80.71
2019-05-17T05:23:06.771Z,80.90
2019-05-17T05:24:06.759Z,80.90
2019-05-17T05:25:06.746Z,80.99
2019-05-17T05:26:06.728Z,81.09
2019-05-17T05:27:06.714Z,80.13
2019-05-17T05:28:06.704Z,79.94
2019-05-17T05:29:06.690Z,79.09
2019-05-17T05:30:06.673Z,77.09
2019-05-17T05:31:06.659Z,74.43
2019-05-17T05:32:06.675Z,73.57
2019-05-17T05:33:06.632Z,73.57
2019-05-17T05:34:06.614Z,73.28
2019-05-17T05:35:06.599Z,73.38
2019-05-17T05:36:06.587Z,73.19
2019-05-17T05:37:06.571Z,73.28
2019-05-17T05:38:06.558Z,73.57
2019-05-17T05:39:06.544Z,73.28
2019-05-17T05:40:06.528Z,72.52
2019-05-17T05:41:06.514Z,72.42
2019-05-17T05:42:10.439Z,72.46
2019-05-17T05:43:06.484Z,72.56
2019-05-17T05:44:06.470Z,71.70
2019-05-17T05:45:06.456Z,70.94
2019-05-17T05:46:06.441Z,70.94
2019-05-17T05:47:06.428Z,69.79
2019-05-17T05:48:06.413Z,69.32
2019-05-17T05:49:06.399Z,69.99
2019-05-17T05:50:06.393Z,69.42
2019-05-17T05:51:06.384Z,69.51
2019-05-17T05:52:06.359Z,69.99
2019-05-17T05:53:06.340Z,69.70
2019-05-17T05:54:06.332Z,70.47
2019-05-17T05:55:06.312Z,69.42
2019-05-17T05:56:06.310Z,68.08
2019-05-17T05:57:06.287Z,68.94
2019-05-17T05:58:06.756Z,67.80
2019-05-17T05:59:06.257Z,68.21
2019-05-17T06:00:06.241Z,68.59
2019-05-17T06:01:06.229Z,69.32
2019-05-17T06:02:06.216Z,69.26
2019-05-17T06:03:06.198Z,69.93
2019-05-17T06:04:06.188Z,70.21
2019-05-17T06:05:06.176Z,70.12
2019-05-17T06:06:06.162Z,70.59
2019-05-17T06:07:06.148Z,70.31
2019-05-17T06:08:06.132Z,69.45
2019-05-17T06:09:06.116Z,69.07
2019-05-17T06:10:06.099Z,69.17
2019-05-17T06:11:06.087Z,68.59
2019-05-17T06:12:06.073Z,68.12
2019-05-17T06:13:06.057Z,68.12
2019-05-17T06:14:06.040Z,67.39
2019-05-17T06:15:06.039Z,67.29
2019-05-17T06:16:06.015Z,67.77
2019-05-17T06:17:06.003Z,67.77
2019-05-17T06:18:05.991Z,67.48
2019-05-17T06:19:05.976Z,66.63
2019-05-17T06:20:05.964Z,65.10
2019-05-17T06:21:05.947Z,64.72
2019-05-17T06:22:05.942Z,64.91
2019-05-17T06:23:05.930Z,65.04
2019-05-17T06:24:05.914Z,65.29
2019-05-17T06:25:05.892Z,66.66
2019-05-17T06:26:05.962Z,65.70
2019-05-17T06:27:05.863Z,65.04
2019-05-17T06:28:05.854Z,64.37
2019-05-17T06:29:05.839Z,63.70
2019-05-17T06:30:05.826Z,64.50
2019-05-17T06:31:05.814Z,64.69
2019-05-17T06:32:05.800Z,63.26
2019-05-17T06:33:05.792Z,63.54
2019-05-17T06:34:05.773Z,63.64
2019-05-17T06:35:05.759Z,62.15
2019-05-17T06:36:05.741Z,61.57
2019-05-17T06:37:05.734Z,60.14
2019-05-17T06:38:05.715Z,59.19
2019-05-17T06:39:05.705Z,57.94
2019-05-17T06:40:05.689Z,58.14
2019-05-17T06:41:05.679Z,57.65
2019-05-17T06:42:05.666Z,58.14
2019-05-17T06:43:05.648Z,57.46
2019-05-17T06:44:05.658Z,58.73
2019-05-17T06:45:05.626Z,57.65
2019-05-17T06:46:05.614Z,57.37
2019-05-17T06:47:05.603Z,56.99
2019-05-17T06:48:05.587Z,57.28
2019-05-17T06:49:05.578Z,56.51
2019-05-17T06:50:05.557Z,57.37
2019-05-17T06:51:05.551Z,56.80
2019-05-17T06:52:05.535Z,56.89
2019-05-17T06:53:05.521Z,56.89
2019-05-17T06:54:05.513Z,57.28
2019-05-17T06:55:06.010Z,55.94
2019-05-17T06:56:05.484Z,54.60
2019-05-17T06:57:05.475Z,56.51
2019-05-17T06:58:05.462Z,56.70
2019-05-17T06:59:05.444Z,56.89
2019-05-17T07:00:11.124Z,57.65
2019-05-17T07:01:05.422Z,56.70
2019-05-17T07:02:05.407Z,56.89
2019-05-17T07:03:05.393Z,57.75
2019-05-17T07:04:05.382Z,58.70
2019-05-17T07:05:05.374Z,58.51
2019-05-17T07:06:05.366Z,56.60
2019-05-17T07:07:05.338Z,55.55
2019-05-17T07:08:05.334Z,54.60
2019-05-17T07:09:05.320Z,54.41
2019-05-17T07:10:05.308Z,54.91
2019-05-17T07:11:05.292Z,55.01
2019-05-17T07:12:05.276Z,54.72
2019-05-17T07:13:05.265Z,55.30
2019-05-17T07:14:05.254Z,55.40
2019-05-17T07:15:05.241Z,55.11
2019-05-17T07:16:05.227Z,55.30
2019-05-17T07:17:05.217Z,55.01
2019-05-17T07:18:05.201Z,54.44
2019-05-17T07:19:05.185Z,55.01
2019-05-17T07:20:05.175Z,55.49
2019-05-17T07:21:05.165Z,54.53
2019-05-17T07:22:05.154Z,54.72
2019-05-17T07:23:05.140Z,54.91
2019-05-17T07:24:05.126Z,54.82
2019-05-17T07:25:05.108Z,54.34
2019-05-17T07:26:05.105Z,55.40
2019-05-17T07:27:05.088Z,55.71
2019-05-17T07:28:05.072Z,55.52
2019-05-17T07:29:05.064Z,54.47
2019-05-17T07:30:05.049Z,52.46
2019-05-17T07:31:05.043Z,53.32
2019-05-17T07:32:05.031Z,53.13
2019-05-17T07:33:05.015Z,54.85
2019-05-17T07:34:05.002Z,54.27
2019-05-17T07:35:04.996Z,53.51
2019-05-17T07:36:04.974Z,53.61
2019-05-17T07:37:04.970Z,53.89
2019-05-17T07:38:04.957Z,53.89
2019-05-17T07:39:04.937Z,54.37
2019-05-17T07:40:05.379Z,54.75
2019-05-17T07:41:04.918Z,54.21
2019-05-17T07:42:04.905Z,54.49
2019-05-17T07:43:10.570Z,52.96
2019-05-17T07:44:04.875Z,51.91
2019-05-17T07:45:04.867Z,51.81
2019-05-17T07:46:04.854Z,51.72
2019-05-17T07:47:04.850Z,52.10
2019-05-17T07:48:04.836Z,52.48
2019-05-17T07:49:04.816Z,50.48
2019-05-17T07:50:04.810Z,49.80
2019-05-17T07:51:04.791Z,50.38
2019-05-17T07:52:04.786Z,52.01
2019-05-17T07:53:04.776Z,52.29
2019-05-17T07:54:04.753Z,52.29
2019-05-17T07:55:04.750Z,51.81
2019-05-17T07:56:04.731Z,50.48
2019-05-17T07:57:04.725Z,50.76
2019-05-17T07:58:04.703Z,50.00
2019-05-17T07:59:04.697Z,49.52
2019-05-17T08:00:04.733Z,50.67
2019-05-17T08:01:04.674Z,50.48
2019-05-17T08:02:04.662Z,50.09
2019-05-17T08:03:04.659Z,50.95
2019-05-17T08:04:04.636Z,51.43
2019-05-17T08:05:04.625Z,49.62
2019-05-17T08:06:04.624Z,51.72
2019-05-17T08:07:04.599Z,52.29
2019-05-17T08:08:04.591Z,51.53
2019-05-17T08:09:04.582Z,51.62
2019-05-17T08:10:04.568Z,52.87
2019-05-17T08:11:04.554Z,51.89
2019-05-17T08:12:04.548Z,51.50
2019-05-17T08:13:04.543Z,52.01
2019-05-17T08:14:04.517Z,52.77
2019-05-17T08:15:04.506Z,52.67
2019-05-17T08:16:04.496Z,52.67
2019-05-17T08:17:04.486Z,54.49
2019-05-17T08:18:04.467Z,54.30
2019-05-17T08:19:04.465Z,52.96
2019-05-17T08:20:04.447Z,52.94
2019-05-17T08:21:04.429Z,53.63
2019-05-17T08:22:04.423Z,52.96
2019-05-17T08:23:05.261Z,51.91
2019-05-17T08:24:04.406Z,52.29
2019-05-17T08:25:04.385Z,52.87
2019-05-17T08:26:04.379Z,52.46
2019-05-17T08:27:04.365Z,52.17
2019-05-17T08:28:04.350Z,52.36
2019-05-17T08:29:04.340Z,52.36
2019-05-17T08:30:04.340Z,51.60
2019-05-17T08:31:04.314Z,52.67
2019-05-17T08:32:04.313Z,51.53
2019-05-17T08:33:04.292Z,51.41
2019-05-17T08:34:04.281Z,50.86
2019-05-17T08:35:04.265Z,51.91
2019-05-17T08:36:04.251Z,52.29
2019-05-17T08:37:04.243Z,53.73
2019-05-17T08:38:04.235Z,54.49
2019-05-17T08:39:04.219Z,50.48
2019-05-17T08:40:04.207Z,50.95
2019-05-17T08:41:04.195Z,51.62
2019-05-17T08:42:04.182Z,52.58
2019-05-17T08:43:04.173Z,51.05
2019-05-17T08:44:04.162Z,51.43
2019-05-17T08:45:04.156Z,52.87
2019-05-17T08:46:04.134Z,52.87
2019-05-17T08:47:04.127Z,53.53
2019-05-17T08:48:04.112Z,52.10
2019-05-17T08:49:04.103Z,52.01
2019-05-17T08:50:04.087Z,52.67
2019-05-17T08:51:04.079Z,52.96
2019-05-17T08:52:04.063Z,52.20
2019-05-17T08:53:04.053Z,51.05
2019-05-17T08:54:04.042Z,51.43
2019-05-17T08:55:04.030Z,51.05
2019-05-17T08:56:04.015Z,51.07
2019-05-17T08:57:04.001Z,51.36
2019-05-17T08:58:03.992Z,50.98
2019-05-17T08:59:03.986Z,49.84
2019-05-17T09:00:03.971Z,50.50
2019-05-17T09:01:03.958Z,50.60
2019-05-17T09:02:03.948Z,50.21
2019-05-17T09:03:03.932Z,51.46
2019-05-17T09:04:03.921Z,51.27
2019-05-17T09:05:03.920Z,49.84
2019-05-17T09:06:03.901Z,49.35
2019-05-17T09:07:03.891Z,48.88
2019-05-17T09:08:03.877Z,49.26
2019-05-17T09:09:03.885Z,48.97
2019-05-17T09:10:03.871Z,49.64
2019-05-17T09:11:03.840Z,49.93
2019-05-17T09:12:03.828Z,50.31
2019-05-17T09:13:03.821Z,50.72
2019-05-17T09:14:03.803Z,51.20
2019-05-17T09:15:03.793Z,51.58
2019-05-17T09:16:03.777Z,51.48
2019-05-17T09:17:03.773Z,52.54
2019-05-17T09:18:03.757Z,53.59
2019-05-17T09:19:03.749Z,50.72
2019-05-17T09:20:03.737Z,49.29
2019-05-17T09:21:03.728Z,50.72
2019-05-17T09:22:03.711Z,51.39
2019-05-17T09:23:03.701Z,49.66
2019-05-17T09:24:03.690Z,50.52
2019-05-17T09:25:03.683Z,49.86
2019-05-17T09:26:03.666Z,49.38
2019-05-17T09:27:03.664Z,50.05
2019-05-17T09:28:03.647Z,50.34
2019-05-17T09:29:06.393Z,49.76
2019-05-17T09:30:03.629Z,49.57
2019-05-17T09:31:03.617Z,49.66
2019-05-17T09:32:03.602Z,49.69
2019-05-17T09:33:03.585Z,49.48
2019-05-17T09:34:03.586Z,48.93
2019-05-17T09:35:03.566Z,49.31
2019-05-17T09:36:03.573Z,48.54
2019-05-17T09:37:03.541Z,48.35
2019-05-17T09:38:03.534Z,49.31
2019-05-17T09:39:03.526Z,48.57
2019-05-17T09:40:03.512Z,51.06
2019-05-17T09:41:03.507Z,51.82
2019-05-17T09:42:03.485Z,51.06
2019-05-17T09:43:03.477Z,47.25
2019-05-17T09:44:13.067Z,47.06
2019-05-17T09:45:03.465Z,48.02
2019-05-17T09:46:03.442Z,47.92
2019-05-17T09:47:03.460Z,48.02
2019-05-17T09:48:03.426Z,46.58
2019-05-17T09:49:03.414Z,45.59
2019-05-17T09:50:03.398Z,46.96
2019-05-17T09:51:03.391Z,47.03
2019-05-17T09:52:03.373Z,47.61
2019-05-17T09:53:03.364Z,48.18
2019-05-17T09:54:03.369Z,48.09
2019-05-17T09:55:03.344Z,48.47
2019-05-17T09:56:03.340Z,47.80
2019-05-17T09:57:03.325Z,48.09
2019-05-17T09:58:03.309Z,48.09
2019-05-17T09:59:03.296Z,48.38
2019-05-17T10:00:03.297Z,46.65
2019-05-17T10:01:03.279Z,44.64
2019-05-17T10:02:03.281Z,45.02
2019-05-17T10:03:03.263Z,46.36
2019-05-17T10:04:03.256Z,47.32
2019-05-17T10:05:03.242Z,45.67
2019-05-17T10:06:03.236Z,45.89
2019-05-17T10:07:03.213Z,45.50
2019-05-17T10:08:03.206Z,44.64
2019-05-17T10:09:03.193Z,44.54
2019-05-17T10:10:03.188Z,46.65
2019-05-17T10:11:08.430Z,47.44
2019-05-17T10:12:03.164Z,45.90
2019-05-17T10:13:03.166Z,44.37
2019-05-17T10:14:03.142Z,45.62
2019-05-17T10:15:03.132Z,47.53
2019-05-17T10:16:03.137Z,47.25
2019-05-17T10:17:03.122Z,46.86
2019-05-17T10:18:03.097Z,45.04
2019-05-17T10:19:03.088Z,45.14
2019-05-17T10:20:03.077Z,47.37
2019-05-17T10:21:03.066Z,47.75
2019-05-17T10:22:03.058Z,47.08
2019-05-17T10:23:03.046Z,47.85
2019-05-17T10:24:03.035Z,47.94
2019-05-17T10:25:03.029Z,45.74
2019-05-17T10:26:03.013Z,47.94
2019-05-17T10:27:03.006Z,48.64
2019-05-17T10:28:02.995Z,49.21
2019-05-17T10:29:02.987Z,46.91
2019-05-17T10:30:02.985Z,43.36
2019-05-17T10:31:02.966Z,43.05
2019-05-17T10:32:02.955Z,41.23
2019-05-17T10:33:02.946Z,41.69
2019-05-17T10:34:02.944Z,41.97
2019-05-17T10:35:02.921Z,43.77
2019-05-17T10:36:02.910Z,43.97
2019-05-17T10:37:02.898Z,45.40
2019-05-17T10:38:02.890Z,48.40
2019-05-17T10:39:02.880Z,46.96
2019-05-17T10:40:02.869Z,44.47
2019-05-17T10:41:02.860Z,42.36
2019-05-17T10:42:02.855Z,43.99
2019-05-17T10:43:02.835Z,46.39
2019-05-17T10:44:02.830Z,43.32
2019-05-17T10:45:02.823Z,42.84
2019-05-17T10:46:02.811Z,41.60
2019-05-17T10:47:02.799Z,42.27
2019-05-17T10:48:02.783Z,44.54
2019-05-17T10:49:02.776Z,45.72
2019-05-17T10:50:02.770Z,45.23
2019-05-17T10:51:02.759Z,41.96
2019-05-17T10:52:02.751Z,43.01
2019-05-17T10:53:02.742Z,43.87
2019-05-17T10:54:04.427Z,44.93
2019-05-17T10:55:02.714Z,45.43
2019-05-17T10:56:02.706Z,45.14
2019-05-17T10:57:02.707Z,45.72
2019-05-17T10:58:02.711Z,46.58
2019-05-17T10:59:02.679Z,44.66
2019-05-17T11:00:02.664Z,43.99
2019-05-17T11:01:02.653Z,44.56
2019-05-17T11:02:02.645Z,44.11
2019-05-17T11:03:02.657Z,44.20
2019-05-17T11:04:02.624Z,44.68
2019-05-17T11:05:02.613Z,45.64
2019-05-17T11:06:02.603Z,43.34
2019-05-17T11:07:02.594Z,42.77
2019-05-17T11:08:02.584Z,44.01
2019-05-17T11:09:02.570Z,43.91
2019-05-17T11:10:02.567Z,42.38
2019-05-17T11:11:02.554Z,42.17
2019-05-17T11:12:02.558Z,41.60
2019-05-17T11:13:02.529Z,41.88
2019-05-17T11:14:02.525Z,41.57
2019-05-17T11:15:10.851Z,40.61
2019-05-17T11:16:02.502Z,41.67
2019-05-17T11:17:02.499Z,41.50
2019-05-17T11:18:02.477Z,44.18
2019-05-17T11:19:02.508Z,45.33
2019-05-17T11:20:02.462Z,44.27
2019-05-17T11:21:02.455Z,44.01
2019-05-17T11:22:02.438Z,45.83
2019-05-17T11:23:02.440Z,44.30
2019-05-17T11:24:02.418Z,41.52
2019-05-17T11:25:02.502Z,43.05
2019-05-17T11:26:02.411Z,42.77
2019-05-17T11:27:02.382Z,42.98
2019-05-17T11:28:02.376Z,42.79
2019-05-17T11:29:02.368Z,43.55
2019-05-17T11:30:02.356Z,41.73
2019-05-17T11:31:02.343Z,40.29
2019-05-17T11:32:02.343Z,39.62
2019-05-17T11:33:02.331Z,40.08
2019-05-17T11:34:02.319Z,41.42
2019-05-17T11:35:02.312Z,40.87
2019-05-17T11:36:02.306Z,40.47
2019-05-17T11:37:02.286Z,41.71
2019-05-17T11:38:02.276Z,38.64
2019-05-17T11:39:02.284Z,37.49
2019-05-17T11:40:02.255Z,38.05
2019-05-17T11:41:19.536Z,39.70
2019-05-17T11:42:02.238Z,40.25
2019-05-17T11:43:02.236Z,40.06
2019-05-17T11:44:02.227Z,40.73
2019-05-17T11:45:02.220Z,40.84
2019-05-17T11:46:02.193Z,38.62
2019-05-17T11:47:02.184Z,39.10
2019-05-17T11:48:02.179Z,40.16
2019-05-17T11:49:02.167Z,40.44
2019-05-17T11:50:02.183Z,41.60
2019-05-17T11:51:02.145Z,41.69
2019-05-17T11:52:02.133Z,41.78
2019-05-17T11:53:02.127Z,41.60
2019-05-17T11:54:02.114Z,41.97
2019-05-17T11:55:02.159Z,41.78
2019-05-17T11:56:02.095Z,42.94
2019-05-17T11:57:02.084Z,42.38
2019-05-17T11:58:02.078Z,42.19
2019-05-17T11:59:02.094Z,42.38
2019-05-17T12:00:02.053Z,40.66
2019-05-17T12:01:02.063Z,40.17
2019-05-17T12:02:02.042Z,39.68
2019-05-17T12:03:02.028Z,40.44
2019-05-17T12:04:02.015Z,40.73
2019-05-17T12:05:02.005Z,41.50
2019-05-17T12:06:01.996Z,41.90
2019-05-17T12:07:01.983Z,40.35
2019-05-17T12:08:01.973Z,39.97
2019-05-17T12:09:01.962Z,40.06
2019-05-17T12:10:01.958Z,41.02
2019-05-17T12:11:02.048Z,41.60
2019-05-17T12:12:01.929Z,41.78
2019-05-17T12:13:01.921Z,42.27
2019-05-17T12:14:01.914Z,39.97
2019-05-17T12:15:02.048Z,40.83
2019-05-17T12:16:01.903Z,41.60
2019-05-17T12:17:01.879Z,40.73
2019-05-17T12:18:01.871Z,41.78
2019-05-17T12:19:01.857Z,42.07
2019-05-17T12:20:01.849Z,42.36
2019-05-17T12:21:01.840Z,41.60
2019-05-17T12:22:01.835Z,40.64
2019-05-17T12:23:01.818Z,41.69
2019-05-17T12:24:01.805Z,41.50
2019-05-17T12:25:01.803Z,42.27
2019-05-17T12:26:01.790Z,42.27
2019-05-17T12:27:01.776Z,43.13
2019-05-17T12:28:01.783Z,42.84
2019-05-17T12:29:01.755Z,39.48
2019-05-17T12:30:01.782Z,40.16
2019-05-17T12:31:01.739Z,41.40
2019-05-17T12:32:01.732Z,41.60
2019-05-17T12:33:01.717Z,41.69
2019-05-17T12:34:01.762Z,40.16
2019-05-17T12:35:01.698Z,39.97
2019-05-17T12:36:01.991Z,39.97
2019-05-17T12:37:01.673Z,39.97
2019-05-17T12:38:01.770Z,40.73
2019-05-17T12:39:01.660Z,40.06
2019-05-17T12:40:01.667Z,39.58
2019-05-17T12:41:01.636Z,39.48
2019-05-17T12:42:01.710Z,40.35
2019-05-17T12:43:01.627Z,40.54
2019-05-17T12:44:01.596Z,40.52
2019-05-17T12:45:01.678Z,40.71
2019-05-17T12:46:01.946Z,41.67
2019-05-17T12:47:01.566Z,41.67
2019-05-17T12:48:01.556Z,42.14
2019-05-17T12:49:02.151Z,43.10
2019-05-17T12:50:01.541Z,44.35
2019-05-17T12:51:01.528Z,45.31
2019-05-17T12:52:01.527Z,45.52